BIVO/VPN METAR and TAF weather

Enter ICAO airport designator
Station Type Date Time Source
BIVO METAR 2018/01/15 08:16 UTC NOAA

BIVO 150816Z 20020G33KT 9999 BKN040 00/M10 Q0950


Station Type Date Time Source
BIVO Decoded METAR 2018/01/15 08:16 UTC NOAA

Skjaldthingsstadir, Iceland (BIVO) 65-42N 014-49W 48M
Jan 15, 2018 - 03:16 AM EST / 2018.01.15 0816 UTC
Wind: from the SSW (200 degrees) at 23 MPH (20 KT) gusting to 38 MPH (33 KT):0
Visibility: greater than 7 mile(s):0
Sky conditions: mostly cloudy
Temperature: 32 F (0 C)
Windchill: 19 F (-7 C):1
Dew Point: 14 F (-10 C)
Relative Humidity: 46%
Pressure (altimeter): 28.05 in. Hg (0950 hPa)
ob: BIVO 150816Z 20020G33KT 9999 BKN040 00/M10 Q0950
cycle: 8

Station Type Date Time Source
BIVO TAF UTC NOAA

Error!


Example: see airport list